sensor_id;sensor_type;location;lat;lon;timestamp;P1;durP1;ratioP1;P2;durP2;ratioP2
12248;SDS011;6187;50.778;6.142;2023-07-09T00:00:50;4.70;;;4.10;;
12248;SDS011;6187;50.778;6.142;2023-07-09T00:03:18;5.47;;;4.37;;
12248;SDS011;6187;50.778;6.142;2023-07-09T00:05:48;4.80;;;4.30;;
12248;SDS011;6187;50.778;6.142;2023-07-09T00:08:21;4.63;;;4.03;;
12248;SDS011;6187;50.778;6.142;2023-07-09T00:10:54;7.10;;;4.17;;
12248;SDS011;6187;50.778;6.142;2023-07-09T00:13:23;5.23;;;3.97;;
12248;SDS011;6187;50.778;6.142;2023-07-09T00:15:52;4.50;;;4.10;;
12248;SDS011;6187;50.778;6.142;2023-07-09T00:18:21;4.40;;;3.97;;
12248;SDS011;6187;50.778;6.142;2023-07-09T00:20:51;5.93;;;3.97;;
12248;SDS011;6187;50.778;6.142;2023-07-09T00:23:20;5.80;;;4.23;;
12248;SDS011;6187;50.778;6.142;2023-07-09T00:25:48;4.63;;;4.13;;
12248;SDS011;6187;50.778;6.142;2023-07-09T00:28:17;5.70;;;4.20;;
12248;SDS011;6187;50.778;6.142;2023-07-09T00:30:47;4.80;;;3.70;;
12248;SDS011;6187;50.778;6.142;2023-07-09T00:33:16;5.63;;;3.93;;
12248;SDS011;6187;50.778;6.142;2023-07-09T00:35:46;4.73;;;4.03;;
12248;SDS011;6187;50.778;6.142;2023-07-09T00:38:19;4.00;;;3.47;;
12248;SDS011;6187;50.778;6.142;2023-07-09T00:40:56;5.27;;;3.87;;
12248;SDS011;6187;50.778;6.142;2023-07-09T00:43:29;5.23;;;4.00;;
12248;SDS011;6187;50.778;6.142;2023-07-09T00:46:10;5.00;;;4.00;;
12248;SDS011;6187;50.778;6.142;2023-07-09T00:48:42;5.70;;;4.30;;
12248;SDS011;6187;50.778;6.142;2023-07-09T00:51:11;4.50;;;3.70;;
12248;SDS011;6187;50.778;6.142;2023-07-09T00:53:43;4.80;;;3.80;;
12248;SDS011;6187;50.778;6.142;2023-07-09T00:56:13;4.90;;;4.30;;
12248;SDS011;6187;50.778;6.142;2023-07-09T00:58:43;4.87;;;4.37;;
12248;SDS011;6187;50.778;6.142;2023-07-09T01:01:15;4.60;;;3.67;;
12248;SDS011;6187;50.778;6.142;2023-07-09T01:03:45;5.47;;;3.80;;
12248;SDS011;6187;50.778;6.142;2023-07-09T01:06:15;4.73;;;4.10;;
12248;SDS011;6187;50.778;6.142;2023-07-09T01:08:48;5.50;;;4.10;;
12248;SDS011;6187;50.778;6.142;2023-07-09T01:11:20;4.83;;;4.33;;
12248;SDS011;6187;50.778;6.142;2023-07-09T01:13:49;5.17;;;4.23;;
12248;SDS011;6187;50.778;6.142;2023-07-09T01:16:20;5.33;;;4.13;;
12248;SDS011;6187;50.778;6.142;2023-07-09T01:18:51;5.03;;;4.10;;
12248;SDS011;6187;50.778;6.142;2023-07-09T01:21:21;5.77;;;3.83;;
12248;SDS011;6187;50.778;6.142;2023-07-09T01:23:50;5.00;;;4.50;;
12248;SDS011;6187;50.778;6.142;2023-07-09T01:26:22;4.63;;;4.10;;
12248;SDS011;6187;50.778;6.142;2023-07-09T01:28:51;4.40;;;3.90;;
12248;SDS011;6187;50.778;6.142;2023-07-09T01:31:20;4.90;;;4.17;;
12248;SDS011;6187;50.778;6.142;2023-07-09T01:33:50;4.37;;;3.70;;
12248;SDS011;6187;50.778;6.142;2023-07-09T01:36:20;6.00;;;4.20;;
12248;SDS011;6187;50.778;6.142;2023-07-09T01:38:50;4.67;;;3.90;;
12248;SDS011;6187;50.778;6.142;2023-07-09T01:41:20;4.23;;;3.53;;
12248;SDS011;6187;50.778;6.142;2023-07-09T01:43:48;5.30;;;3.83;;
12248;SDS011;6187;50.778;6.142;2023-07-09T01:46:17;4.10;;;3.50;;
12248;SDS011;6187;50.778;6.142;2023-07-09T01:48:46;5.30;;;4.10;;
12248;SDS011;6187;50.778;6.142;2023-07-09T01:51:16;4.97;;;4.00;;
12248;SDS011;6187;50.778;6.142;2023-07-09T01:53:47;4.87;;;3.57;;
12248;SDS011;6187;50.778;6.142;2023-07-09T01:56:15;4.17;;;3.53;;
12248;SDS011;6187;50.778;6.142;2023-07-09T01:58:44;4.73;;;4.00;;
12248;SDS011;6187;50.778;6.142;2023-07-09T02:01:14;5.60;;;3.67;;
12248;SDS011;6187;50.778;6.142;2023-07-09T02:03:43;4.63;;;3.87;;
12248;SDS011;6187;50.778;6.142;2023-07-09T02:06:12;4.60;;;3.70;;
12248;SDS011;6187;50.778;6.142;2023-07-09T02:08:40;4.77;;;4.27;;
12248;SDS011;6187;50.778;6.142;2023-07-09T02:11:11;5.20;;;4.30;;
12248;SDS011;6187;50.778;6.142;2023-07-09T02:13:39;5.77;;;4.17;;
12248;SDS011;6187;50.778;6.142;2023-07-09T02:16:08;5.57;;;3.77;;
12248;SDS011;6187;50.778;6.142;2023-07-09T02:18:37;4.27;;;3.87;;
12248;SDS011;6187;50.778;6.142;2023-07-09T02:21:05;4.70;;;4.00;;
12248;SDS011;6187;50.778;6.142;2023-07-09T02:23:34;5.43;;;4.00;;
12248;SDS011;6187;50.778;6.142;2023-07-09T02:26:03;4.43;;;4.03;;
12248;SDS011;6187;50.778;6.142;2023-07-09T02:28:33;4.97;;;4.00;;
12248;SDS011;6187;50.778;6.142;2023-07-09T02:31:02;4.80;;;4.20;;
12248;SDS011;6187;50.778;6.142;2023-07-09T02:33:31;4.93;;;4.20;;
12248;SDS011;6187;50.778;6.142;2023-07-09T02:35:59;4.73;;;3.77;;
12248;SDS011;6187;50.778;6.142;2023-07-09T02:38:28;5.40;;;3.73;;
12248;SDS011;6187;50.778;6.142;2023-07-09T02:40:57;5.77;;;4.20;;
12248;SDS011;6187;50.778;6.142;2023-07-09T02:43:26;5.70;;;4.77;;
12248;SDS011;6187;50.778;6.142;2023-07-09T02:45:56;5.90;;;4.37;;
12248;SDS011;6187;50.778;6.142;2023-07-09T02:48:24;5.50;;;4.40;;
12248;SDS011;6187;50.778;6.142;2023-07-09T02:50:53;5.33;;;4.30;;
12248;SDS011;6187;50.778;6.142;2023-07-09T02:53:22;5.17;;;3.80;;
12248;SDS011;6187;50.778;6.142;2023-07-09T02:55:50;4.70;;;4.20;;
12248;SDS011;6187;50.778;6.142;2023-07-09T02:58:19;5.67;;;4.53;;
12248;SDS011;6187;50.778;6.142;2023-07-09T03:00:48;4.87;;;4.40;;
12248;SDS011;6187;50.778;6.142;2023-07-09T03:03:21;5.07;;;4.37;;
12248;SDS011;6187;50.778;6.142;2023-07-09T03:05:49;4.73;;;3.73;;
12248;SDS011;6187;50.778;6.142;2023-07-09T03:08:18;4.67;;;4.17;;
12248;SDS011;6187;50.778;6.142;2023-07-09T03:10:47;5.20;;;4.20;;
12248;SDS011;6187;50.778;6.142;2023-07-09T03:13:16;4.87;;;3.93;;
12248;SDS011;6187;50.778;6.142;2023-07-09T03:15:53;5.50;;;4.10;;
12248;SDS011;6187;50.778;6.142;2023-07-09T03:18:24;4.43;;;3.83;;
12248;SDS011;6187;50.778;6.142;2023-07-09T03:20:53;5.00;;;3.93;;
12248;SDS011;6187;50.778;6.142;2023-07-09T03:23:22;6.50;;;4.20;;
12248;SDS011;6187;50.778;6.142;2023-07-09T03:25:50;4.20;;;3.60;;
12248;SDS011;6187;50.778;6.142;2023-07-09T03:28:19;4.27;;;3.87;;
12248;SDS011;6187;50.778;6.142;2023-07-09T03:30:48;4.97;;;3.60;;
12248;SDS011;6187;50.778;6.142;2023-07-09T03:33:17;4.63;;;4.03;;
12248;SDS011;6187;50.778;6.142;2023-07-09T03:35:47;5.90;;;3.60;;
12248;SDS011;6187;50.778;6.142;2023-07-09T03:38:15;5.40;;;3.80;;
12248;SDS011;6187;50.778;6.142;2023-07-09T03:40:44;4.70;;;3.47;;
12248;SDS011;6187;50.778;6.142;2023-07-09T03:43:13;5.03;;;3.70;;
12248;SDS011;6187;50.778;6.142;2023-07-09T03:45:41;4.60;;;3.70;;
12248;SDS011;6187;50.778;6.142;2023-07-09T03:48:13;4.73;;;4.17;;
12248;SDS011;6187;50.778;6.142;2023-07-09T03:50:43;4.73;;;3.90;;
12248;SDS011;6187;50.778;6.142;2023-07-09T03:53:14;5.03;;;3.53;;
12248;SDS011;6187;50.778;6.142;2023-07-09T03:55:45;5.10;;;3.30;;
12248;SDS011;6187;50.778;6.142;2023-07-09T03:58:14;3.90;;;3.47;;
12248;SDS011;6187;50.778;6.142;2023-07-09T04:00:43;3.97;;;3.33;;
12248;SDS011;6187;50.778;6.142;2023-07-09T04:03:11;4.60;;;3.90;;
12248;SDS011;6187;50.778;6.142;2023-07-09T04:05:40;5.07;;;4.00;;
12248;SDS011;6187;50.778;6.142;2023-07-09T04:08:09;4.17;;;3.77;;
12248;SDS011;6187;50.778;6.142;2023-07-09T04:10:39;4.40;;;3.53;;
12248;SDS011;6187;50.778;6.142;2023-07-09T04:13:07;4.40;;;4.00;;
12248;SDS011;6187;50.778;6.142;2023-07-09T04:15:36;5.03;;;3.83;;
12248;SDS011;6187;50.778;6.142;2023-07-09T04:18:05;4.80;;;3.87;;
12248;SDS011;6187;50.778;6.142;2023-07-09T04:20:33;3.97;;;3.57;;
12248;SDS011;6187;50.778;6.142;2023-07-09T04:23:02;4.07;;;3.67;;
12248;SDS011;6187;50.778;6.142;2023-07-09T04:25:31;4.37;;;3.70;;
12248;SDS011;6187;50.778;6.142;2023-07-09T04:28:01;4.43;;;3.53;;
12248;SDS011;6187;50.778;6.142;2023-07-09T04:30:30;4.23;;;3.60;;
12248;SDS011;6187;50.778;6.142;2023-07-09T04:32:59;4.57;;;3.57;;
12248;SDS011;6187;50.778;6.142;2023-07-09T04:35:28;6.17;;;4.20;;
12248;SDS011;6187;50.778;6.142;2023-07-09T04:37:57;4.50;;;3.53;;
12248;SDS011;6187;50.778;6.142;2023-07-09T04:40:26;6.93;;;4.50;;
12248;SDS011;6187;50.778;6.142;2023-07-09T04:42:54;4.27;;;3.57;;
12248;SDS011;6187;50.778;6.142;2023-07-09T04:45:24;5.70;;;3.53;;
12248;SDS011;6187;50.778;6.142;2023-07-09T04:47:53;6.13;;;3.97;;
12248;SDS011;6187;50.778;6.142;2023-07-09T04:50:22;6.33;;;4.37;;
12248;SDS011;6187;50.778;6.142;2023-07-09T04:52:50;6.33;;;4.00;;
12248;SDS011;6187;50.778;6.142;2023-07-09T04:55:19;5.63;;;3.83;;
12248;SDS011;6187;50.778;6.142;2023-07-09T04:57:48;3.97;;;3.47;;
12248;SDS011;6187;50.778;6.142;2023-07-09T05:00:16;4.20;;;3.27;;
12248;SDS011;6187;50.778;6.142;2023-07-09T05:02:46;3.23;;;2.67;;
12248;SDS011;6187;50.778;6.142;2023-07-09T05:05:15;3.57;;;2.77;;
12248;SDS011;6187;50.778;6.142;2023-07-09T05:07:44;4.27;;;2.70;;
12248;SDS011;6187;50.778;6.142;2023-07-09T05:10:13;4.13;;;2.83;;
12248;SDS011;6187;50.778;6.142;2023-07-09T05:12:48;2.70;;;2.50;;
12248;SDS011;6187;50.778;6.142;2023-07-09T05:15:17;3.03;;;2.50;;
12248;SDS011;6187;50.778;6.142;2023-07-09T05:17:48;2.87;;;2.47;;
12248;SDS011;6187;50.778;6.142;2023-07-09T05:20:17;2.30;;;2.10;;
12248;SDS011;6187;50.778;6.142;2023-07-09T05:22:45;2.30;;;2.00;;
12248;SDS011;6187;50.778;6.142;2023-07-09T05:25:14;2.77;;;2.30;;
12248;SDS011;6187;50.778;6.142;2023-07-09T05:27:43;2.97;;;2.50;;
12248;SDS011;6187;50.778;6.142;2023-07-09T05:30:12;2.93;;;2.63;;
12248;SDS011;6187;50.778;6.142;2023-07-09T05:32:40;2.93;;;2.40;;
12248;SDS011;6187;50.778;6.142;2023-07-09T05:35:10;2.63;;;2.43;;
12248;SDS011;6187;50.778;6.142;2023-07-09T05:37:39;3.63;;;2.60;;
12248;SDS011;6187;50.778;6.142;2023-07-09T05:40:08;3.50;;;2.37;;
12248;SDS011;6187;50.778;6.142;2023-07-09T05:42:37;2.57;;;2.30;;
12248;SDS011;6187;50.778;6.142;2023-07-09T05:45:06;2.37;;;2.17;;
12248;SDS011;6187;50.778;6.142;2023-07-09T05:47:35;2.43;;;2.20;;
12248;SDS011;6187;50.778;6.142;2023-07-09T05:50:04;2.97;;;2.37;;
12248;SDS011;6187;50.778;6.142;2023-07-09T05:52:34;2.80;;;2.40;;
12248;SDS011;6187;50.778;6.142;2023-07-09T05:55:03;2.70;;;2.40;;
12248;SDS011;6187;50.778;6.142;2023-07-09T05:57:32;3.63;;;2.70;;
12248;SDS011;6187;50.778;6.142;2023-07-09T06:00:01;2.30;;;2.10;;
12248;SDS011;6187;50.778;6.142;2023-07-09T06:02:29;2.20;;;2.00;;
12248;SDS011;6187;50.778;6.142;2023-07-09T06:04:58;2.70;;;2.40;;
12248;SDS011;6187;50.778;6.142;2023-07-09T06:07:27;2.38;;;2.10;;
12248;SDS011;6187;50.778;6.142;2023-07-09T06:09:57;2.92;;;2.58;;
12248;SDS011;6187;50.778;6.142;2023-07-09T06:12:25;2.65;;;2.40;;
12248;SDS011;6187;50.778;6.142;2023-07-09T06:14:54;2.67;;;2.42;;
12248;SDS011;6187;50.778;6.142;2023-07-09T06:17:23;3.08;;;2.35;;
12248;SDS011;6187;50.778;6.142;2023-07-09T06:19:51;3.53;;;2.20;;
12248;SDS011;6187;50.778;6.142;2023-07-09T06:22:21;3.17;;;2.63;;
12248;SDS011;6187;50.778;6.142;2023-07-09T06:24:50;2.67;;;2.13;;
12248;SDS011;6187;50.778;6.142;2023-07-09T06:27:20;2.85;;;2.10;;
12248;SDS011;6187;50.778;6.142;2023-07-09T06:29:49;2.50;;;2.30;;
12248;SDS011;6187;50.778;6.142;2023-07-09T06:32:18;4.38;;;2.58;;
12248;SDS011;6187;50.778;6.142;2023-07-09T06:34:47;2.67;;;2.15;;
12248;SDS011;6187;50.778;6.142;2023-07-09T06:37:16;2.53;;;2.33;;
12248;SDS011;6187;50.778;6.142;2023-07-09T06:39:45;2.85;;;2.42;;
12248;SDS011;6187;50.778;6.142;2023-07-09T06:42:13;2.78;;;2.45;;
12248;SDS011;6187;50.778;6.142;2023-07-09T06:44:43;3.17;;;2.30;;
12248;SDS011;6187;50.778;6.142;2023-07-09T06:47:12;3.13;;;2.58;;
12248;SDS011;6187;50.778;6.142;2023-07-09T06:49:41;3.25;;;2.72;;
12248;SDS011;6187;50.778;6.142;2023-07-09T06:52:09;2.63;;;2.20;;
12248;SDS011;6187;50.778;6.142;2023-07-09T06:54:38;2.60;;;2.40;;
12248;SDS011;6187;50.778;6.142;2023-07-09T06:57:07;3.33;;;2.20;;
12248;SDS011;6187;50.778;6.142;2023-07-09T06:59:35;3.25;;;2.30;;
12248;SDS011;6187;50.778;6.142;2023-07-09T07:02:05;2.72;;;2.22;;
12248;SDS011;6187;50.778;6.142;2023-07-09T07:04:34;2.70;;;2.42;;
12248;SDS011;6187;50.778;6.142;2023-07-09T07:07:03;3.17;;;2.60;;
12248;SDS011;6187;50.778;6.142;2023-07-09T07:09:32;2.70;;;2.25;;
12248;SDS011;6187;50.778;6.142;2023-07-09T07:12:00;4.35;;;2.83;;
12248;SDS011;6187;50.778;6.142;2023-07-09T07:14:29;2.85;;;2.50;;
12248;SDS011;6187;50.778;6.142;2023-07-09T07:16:58;2.78;;;2.28;;
12248;SDS011;6187;50.778;6.142;2023-07-09T07:19:28;2.67;;;2.30;;
12248;SDS011;6187;50.778;6.142;2023-07-09T07:21:57;2.60;;;2.40;;
12248;SDS011;6187;50.778;6.142;2023-07-09T07:24:25;3.13;;;2.40;;
12248;SDS011;6187;50.778;6.142;2023-07-09T07:26:54;3.60;;;2.90;;
12248;SDS011;6187;50.778;6.142;2023-07-09T07:29:22;2.60;;;2.17;;
12248;SDS011;6187;50.778;6.142;2023-07-09T07:31:51;2.88;;;2.47;;
12248;SDS011;6187;50.778;6.142;2023-07-09T07:34:22;4.38;;;2.35;;
12248;SDS011;6187;50.778;6.142;2023-07-09T07:36:52;2.50;;;2.30;;
12248;SDS011;6187;50.778;6.142;2023-07-09T07:39:20;3.03;;;2.65;;
12248;SDS011;6187;50.778;6.142;2023-07-09T07:41:49;2.97;;;2.42;;
12248;SDS011;6187;50.778;6.142;2023-07-09T07:44:18;2.53;;;2.33;;
12248;SDS011;6187;50.778;6.142;2023-07-09T07:46:47;2.50;;;2.30;;
12248;SDS011;6187;50.778;6.142;2023-07-09T07:49:15;2.40;;;2.13;;
12248;SDS011;6187;50.778;6.142;2023-07-09T07:51:44;2.97;;;2.05;;
12248;SDS011;6187;50.778;6.142;2023-07-09T07:54:15;2.88;;;2.33;;
12248;SDS011;6187;50.778;6.142;2023-07-09T07:56:44;2.95;;;2.38;;
12248;SDS011;6187;50.778;6.142;2023-07-09T07:59:13;2.30;;;2.08;;
12248;SDS011;6187;50.778;6.142;2023-07-09T08:01:43;3.05;;;2.20;;
12248;SDS011;6187;50.778;6.142;2023-07-09T08:04:11;3.70;;;2.28;;
12248;SDS011;6187;50.778;6.142;2023-07-09T08:06:40;2.70;;;2.10;;
12248;SDS011;6187;50.778;6.142;2023-07-09T08:09:09;2.20;;;2.00;;
12248;SDS011;6187;50.778;6.142;2023-07-09T08:11:39;2.38;;;2.10;;
12248;SDS011;6187;50.778;6.142;2023-07-09T08:14:07;2.33;;;2.05;;
12248;SDS011;6187;50.778;6.142;2023-07-09T08:16:36;2.40;;;1.98;;
12248;SDS011;6187;50.778;6.142;2023-07-09T08:19:05;2.30;;;2.10;;
12248;SDS011;6187;50.778;6.142;2023-07-09T08:21:33;2.42;;;2.20;;
12248;SDS011;6187;50.778;6.142;2023-07-09T08:24:02;2.33;;;2.10;;
12248;SDS011;6187;50.778;6.142;2023-07-09T08:26:31;3.22;;;1.95;;
12248;SDS011;6187;50.778;6.142;2023-07-09T08:29:01;3.10;;;2.38;;
12248;SDS011;6187;50.778;6.142;2023-07-09T08:31:30;2.83;;;2.25;;
12248;SDS011;6187;50.778;6.142;2023-07-09T08:33:58;2.78;;;2.47;;
12248;SDS011;6187;50.778;6.142;2023-07-09T08:36:27;3.40;;;2.17;;
12248;SDS011;6187;50.778;6.142;2023-07-09T08:38:57;2.88;;;2.10;;
12248;SDS011;6187;50.778;6.142;2023-07-09T08:41:32;2.55;;;2.00;;
12248;SDS011;6187;50.778;6.142;2023-07-09T08:44:08;2.60;;;2.40;;
12248;SDS011;6187;50.778;6.142;2023-07-09T08:46:43;2.47;;;2.28;;
12248;SDS011;6187;50.778;6.142;2023-07-09T08:49:16;2.65;;;2.20;;
12248;SDS011;6187;50.778;6.142;2023-07-09T08:51:47;2.85;;;2.17;;
12248;SDS011;6187;50.778;6.142;2023-07-09T08:54:17;2.17;;;1.90;;
12248;SDS011;6187;50.778;6.142;2023-07-09T08:56:50;2.40;;;2.20;;
12248;SDS011;6187;50.778;6.142;2023-07-09T08:59:20;3.00;;;2.70;;
12248;SDS011;6187;50.778;6.142;2023-07-09T09:01:50;2.20;;;2.00;;
12248;SDS011;6187;50.778;6.142;2023-07-09T09:04:20;3.20;;;2.50;;
12248;SDS011;6187;50.778;6.142;2023-07-09T09:06:51;2.10;;;1.90;;
12248;SDS011;6187;50.778;6.142;2023-07-09T09:09:22;2.42;;;2.22;;
12248;SDS011;6187;50.778;6.142;2023-07-09T09:11:56;2.65;;;2.22;;
12248;SDS011;6187;50.778;6.142;2023-07-09T09:14:30;2.58;;;2.22;;
12248;SDS011;6187;50.778;6.142;2023-07-09T09:17:00;2.55;;;2.20;;
12248;SDS011;6187;50.778;6.142;2023-07-09T09:19:31;3.97;;;2.30;;
12248;SDS011;6187;50.778;6.142;2023-07-09T09:22:05;2.88;;;2.65;;
12248;SDS011;6187;50.778;6.142;2023-07-09T09:24:37;2.22;;;2.03;;
12248;SDS011;6187;50.778;6.142;2023-07-09T09:27:07;2.40;;;2.10;;
12248;SDS011;6187;50.778;6.142;2023-07-09T09:29:37;2.25;;;2.05;;
12248;SDS011;6187;50.778;6.142;2023-07-09T09:32:13;2.63;;;1.85;;
12248;SDS011;6187;50.778;6.142;2023-07-09T09:34:46;2.65;;;2.15;;
12248;SDS011;6187;50.778;6.142;2023-07-09T09:37:15;2.42;;;2.22;;
12248;SDS011;6187;50.778;6.142;2023-07-09T09:39:51;3.25;;;2.08;;
12248;SDS011;6187;50.778;6.142;2023-07-09T09:42:40;2.35;;;2.15;;
12248;SDS011;6187;50.778;6.142;2023-07-09T09:45:12;2.28;;;2.00;;
12248;SDS011;6187;50.778;6.142;2023-07-09T09:47:43;2.70;;;2.00;;
12248;SDS011;6187;50.778;6.142;2023-07-09T09:50:13;3.35;;;2.00;;
12248;SDS011;6187;50.778;6.142;2023-07-09T09:52:42;2.63;;;1.80;;
12248;SDS011;6187;50.778;6.142;2023-07-09T09:55:12;2.38;;;1.85;;
12248;SDS011;6187;50.778;6.142;2023-07-09T09:57:46;2.92;;;2.10;;
12248;SDS011;6187;50.778;6.142;2023-07-09T10:00:17;1.85;;;1.63;;
12248;SDS011;6187;50.778;6.142;2023-07-09T10:02:46;2.60;;;1.77;;
12248;SDS011;6187;50.778;6.142;2023-07-09T10:05:15;2.17;;;1.85;;
12248;SDS011;6187;50.778;6.142;2023-07-09T10:07:46;5.20;;;2.15;;
12248;SDS011;6187;50.778;6.142;2023-07-09T10:10:17;2.88;;;2.10;;
12248;SDS011;6187;50.778;6.142;2023-07-09T10:12:49;2.30;;;2.10;;
12248;SDS011;6187;50.778;6.142;2023-07-09T10:15:24;3.25;;;2.53;;
12248;SDS011;6187;50.778;6.142;2023-07-09T10:17:55;2.35;;;2.15;;
12248;SDS011;6187;50.778;6.142;2023-07-09T10:20:26;2.22;;;2.03;;
12248;SDS011;6187;50.778;6.142;2023-07-09T10:23:00;2.30;;;1.98;;
12248;SDS011;6187;50.778;6.142;2023-07-09T10:25:33;2.58;;;2.17;;
12248;SDS011;6187;50.778;6.142;2023-07-09T10:28:19;2.90;;;2.30;;
12248;SDS011;6187;50.778;6.142;2023-07-09T10:30:52;2.30;;;2.10;;
12248;SDS011;6187;50.778;6.142;2023-07-09T10:33:28;3.08;;;2.15;;
12248;SDS011;6187;50.778;6.142;2023-07-09T10:36:01;2.40;;;2.20;;
12248;SDS011;6187;50.778;6.142;2023-07-09T10:38:35;2.10;;;1.90;;
12248;SDS011;6187;50.778;6.142;2023-07-09T10:41:07;2.40;;;2.13;;
12248;SDS011;6187;50.778;6.142;2023-07-09T10:43:54;3.28;;;2.20;;
12248;SDS011;6187;50.778;6.142;2023-07-09T10:46:28;1.95;;;1.85;;
12248;SDS011;6187;50.778;6.142;2023-07-09T10:48:59;2.35;;;2.15;;
12248;SDS011;6187;50.778;6.142;2023-07-09T10:51:30;2.55;;;2.05;;
12248;SDS011;6187;50.778;6.142;2023-07-09T10:54:01;2.42;;;2.22;;
12248;SDS011;6187;50.778;6.142;2023-07-09T10:56:31;2.90;;;2.20;;
12248;SDS011;6187;50.778;6.142;2023-07-09T10:59:03;2.20;;;2.00;;
12248;SDS011;6187;50.778;6.142;2023-07-09T11:01:37;2.00;;;1.90;;
12248;SDS011;6187;50.778;6.142;2023-07-09T11:04:10;2.30;;;2.10;;
12248;SDS011;6187;50.778;6.142;2023-07-09T11:06:41;2.40;;;2.20;;
12248;SDS011;6187;50.778;6.142;2023-07-09T11:09:22;3.53;;;2.45;;
12248;SDS011;6187;50.778;6.142;2023-07-09T11:11:53;2.45;;;2.25;;
12248;SDS011;6187;50.778;6.142;2023-07-09T11:14:25;2.15;;;1.95;;
12248;SDS011;6187;50.778;6.142;2023-07-09T11:16:57;2.80;;;2.00;;
12248;SDS011;6187;50.778;6.142;2023-07-09T11:19:27;2.85;;;2.30;;
12248;SDS011;6187;50.778;6.142;2023-07-09T11:22:01;2.70;;;2.08;;
12248;SDS011;6187;50.778;6.142;2023-07-09T11:24:32;2.30;;;2.10;;
12248;SDS011;6187;50.778;6.142;2023-07-09T11:27:01;3.75;;;2.40;;
12248;SDS011;6187;50.778;6.142;2023-07-09T11:29:30;2.33;;;2.13;;
12248;SDS011;6187;50.778;6.142;2023-07-09T11:32:08;2.20;;;2.00;;
12248;SDS011;6187;50.778;6.142;2023-07-09T11:34:44;2.35;;;2.15;;
12248;SDS011;6187;50.778;6.142;2023-07-09T11:37:15;2.50;;;2.03;;
12248;SDS011;6187;50.778;6.142;2023-07-09T11:39:44;2.47;;;2.28;;
12248;SDS011;6187;50.778;6.142;2023-07-09T11:42:23;2.72;;;2.53;;
12248;SDS011;6187;50.778;6.142;2023-07-09T11:44:53;2.38;;;2.17;;
12248;SDS011;6187;50.778;6.142;2023-07-09T11:47:27;2.53;;;2.33;;
12248;SDS011;6187;50.778;6.142;2023-07-09T11:49:57;2.40;;;2.20;;
12248;SDS011;6187;50.778;6.142;2023-07-09T11:52:28;3.47;;;2.53;;
12248;SDS011;6187;50.778;6.142;2023-07-09T11:55:01;2.95;;;2.42;;
12248;SDS011;6187;50.778;6.142;2023-07-09T11:57:30;3.72;;;2.00;;
12248;SDS011;6187;50.778;6.142;2023-07-09T11:59:59;1.88;;;1.77;;
12248;SDS011;6187;50.778;6.142;2023-07-09T12:02:30;2.15;;;1.92;;
12248;SDS011;6187;50.778;6.142;2023-07-09T12:05:02;2.20;;;2.00;;
12248;SDS011;6187;50.778;6.142;2023-07-09T12:07:32;2.28;;;1.83;;
12248;SDS011;6187;50.778;6.142;2023-07-09T12:10:02;3.15;;;2.58;;
12248;SDS011;6187;50.778;6.142;2023-07-09T12:12:31;2.40;;;2.20;;
12248;SDS011;6187;50.778;6.142;2023-07-09T12:15:04;2.20;;;2.00;;
12248;SDS011;6187;50.778;6.142;2023-07-09T12:17:34;3.45;;;2.72;;
12248;SDS011;6187;50.778;6.142;2023-07-09T12:20:04;2.33;;;2.13;;
12248;SDS011;6187;50.778;6.142;2023-07-09T12:22:33;2.85;;;2.45;;
12248;SDS011;6187;50.778;6.142;2023-07-09T12:25:02;2.35;;;2.15;;
12248;SDS011;6187;50.778;6.142;2023-07-09T12:27:38;3.95;;;2.65;;
12248;SDS011;6187;50.778;6.142;2023-07-09T12:30:11;2.45;;;2.22;;
12248;SDS011;6187;50.778;6.142;2023-07-09T12:32:45;2.90;;;2.53;;
12248;SDS011;6187;50.778;6.142;2023-07-09T12:35:14;2.33;;;2.13;;
12248;SDS011;6187;50.778;6.142;2023-07-09T12:37:43;3.30;;;2.40;;
12248;SDS011;6187;50.778;6.142;2023-07-09T12:40:13;2.60;;;2.20;;
12248;SDS011;6187;50.778;6.142;2023-07-09T12:42:43;3.05;;;2.70;;
12248;SDS011;6187;50.778;6.142;2023-07-09T12:45:15;3.05;;;2.55;;
12248;SDS011;6187;50.778;6.142;2023-07-09T12:47:47;3.05;;;2.33;;
12248;SDS011;6187;50.778;6.142;2023-07-09T12:50:21;2.70;;;2.50;;
12248;SDS011;6187;50.778;6.142;2023-07-09T12:52:50;2.53;;;2.33;;
12248;SDS011;6187;50.778;6.142;2023-07-09T12:55:19;2.58;;;2.28;;
12248;SDS011;6187;50.778;6.142;2023-07-09T12:57:48;2.80;;;2.38;;
12248;SDS011;6187;50.778;6.142;2023-07-09T13:00:18;2.90;;;2.42;;
12248;SDS011;6187;50.778;6.142;2023-07-09T13:02:52;2.45;;;2.25;;
12248;SDS011;6187;50.778;6.142;2023-07-09T13:05:22;2.50;;;2.30;;
12248;SDS011;6187;50.778;6.142;2023-07-09T13:07:51;2.63;;;2.38;;
12248;SDS011;6187;50.778;6.142;2023-07-09T13:10:22;2.78;;;2.13;;
12248;SDS011;6187;50.778;6.142;2023-07-09T13:12:54;2.70;;;2.42;;
12248;SDS011;6187;50.778;6.142;2023-07-09T13:15:26;2.17;;;1.98;;
12248;SDS011;6187;50.778;6.142;2023-07-09T13:18:01;3.50;;;2.45;;
12248;SDS011;6187;50.778;6.142;2023-07-09T13:20:31;2.72;;;2.05;;
12248;SDS011;6187;50.778;6.142;2023-07-09T13:23:00;4.70;;;2.72;;
12248;SDS011;6187;50.778;6.142;2023-07-09T13:25:29;2.40;;;2.20;;
12248;SDS011;6187;50.778;6.142;2023-07-09T13:28:16;2.33;;;1.95;;
12248;SDS011;6187;50.778;6.142;2023-07-09T13:30:46;3.03;;;2.25;;
12248;SDS011;6187;50.778;6.142;2023-07-09T13:33:16;2.33;;;2.05;;
12248;SDS011;6187;50.778;6.142;2023-07-09T13:35:45;2.95;;;2.40;;
12248;SDS011;6187;50.778;6.142;2023-07-09T13:38:14;4.68;;;2.40;;
12248;SDS011;6187;50.778;6.142;2023-07-09T13:40:44;2.88;;;2.45;;
12248;SDS011;6187;50.778;6.142;2023-07-09T13:43:14;3.70;;;2.58;;
12248;SDS011;6187;50.778;6.142;2023-07-09T13:45:43;2.55;;;2.35;;
12248;SDS011;6187;50.778;6.142;2023-07-09T13:48:12;2.92;;;2.20;;
12248;SDS011;6187;50.778;6.142;2023-07-09T13:50:44;2.38;;;2.10;;
12248;SDS011;6187;50.778;6.142;2023-07-09T13:53:14;3.67;;;2.78;;
12248;SDS011;6187;50.778;6.142;2023-07-09T13:55:43;4.43;;;3.55;;
12248;SDS011;6187;50.778;6.142;2023-07-09T13:58:13;5.47;;;3.92;;
12248;SDS011;6187;50.778;6.142;2023-07-09T14:00:43;5.00;;;3.72;;
12248;SDS011;6187;50.778;6.142;2023-07-09T14:03:14;3.67;;;3.10;;
12248;SDS011;6187;50.778;6.142;2023-07-09T14:05:45;4.55;;;3.15;;
12248;SDS011;6187;50.778;6.142;2023-07-09T14:08:14;3.83;;;3.20;;
12248;SDS011;6187;50.778;6.142;2023-07-09T14:10:43;4.10;;;3.30;;
12248;SDS011;6187;50.778;6.142;2023-07-09T14:13:12;5.23;;;4.20;;
12248;SDS011;6187;50.778;6.142;2023-07-09T14:15:42;5.27;;;4.77;;
12248;SDS011;6187;50.778;6.142;2023-07-09T14:18:11;5.97;;;5.17;;
12248;SDS011;6187;50.778;6.142;2023-07-09T14:20:40;7.27;;;5.90;;
12248;SDS011;6187;50.778;6.142;2023-07-09T14:23:11;7.80;;;6.53;;
12248;SDS011;6187;50.778;6.142;2023-07-09T14:25:41;8.60;;;6.17;;
12248;SDS011;6187;50.778;6.142;2023-07-09T14:28:11;9.63;;;6.63;;
12248;SDS011;6187;50.778;6.142;2023-07-09T14:30:40;7.73;;;6.60;;
12248;SDS011;6187;50.778;6.142;2023-07-09T14:33:11;8.30;;;6.73;;
12248;SDS011;6187;50.778;6.142;2023-07-09T14:35:40;7.70;;;6.83;;
12248;SDS011;6187;50.778;6.142;2023-07-09T14:38:14;8.30;;;7.10;;
12248;SDS011;6187;50.778;6.142;2023-07-09T14:40:44;8.87;;;7.57;;
12248;SDS011;6187;50.778;6.142;2023-07-09T14:43:13;7.63;;;6.63;;
12248;SDS011;6187;50.778;6.142;2023-07-09T14:45:42;6.83;;;6.13;;
12248;SDS011;6187;50.778;6.142;2023-07-09T14:48:11;8.40;;;6.47;;
12248;SDS011;6187;50.778;6.142;2023-07-09T14:50:40;6.37;;;5.73;;
12248;SDS011;6187;50.778;6.142;2023-07-09T14:53:14;7.70;;;6.90;;
12248;SDS011;6187;50.778;6.142;2023-07-09T14:55:42;7.80;;;6.30;;
12248;SDS011;6187;50.778;6.142;2023-07-09T14:58:13;8.00;;;5.77;;
12248;SDS011;6187;50.778;6.142;2023-07-09T15:00:43;6.57;;;5.90;;
12248;SDS011;6187;50.778;6.142;2023-07-09T15:03:15;7.50;;;6.37;;
12248;SDS011;6187;50.778;6.142;2023-07-09T15:05:46;6.43;;;5.80;;
12248;SDS011;6187;50.778;6.142;2023-07-09T15:08:17;5.97;;;5.37;;
12248;SDS011;6187;50.778;6.142;2023-07-09T15:10:46;6.97;;;5.80;;
12248;SDS011;6187;50.778;6.142;2023-07-09T15:13:15;7.07;;;6.13;;
12248;SDS011;6187;50.778;6.142;2023-07-09T15:15:45;7.07;;;5.67;;
12248;SDS011;6187;50.778;6.142;2023-07-09T15:18:14;6.10;;;5.50;;